<?xml version="1.0" encoding="UTF-8" standalone="no" ?>
<gpx xmlns="http://www.topografix.com/GPX/1/1" xmlns:xsi="http://www.w3.org/2001/XMLSchema-instance" xsi:schemaLocation="http://www.topografix.com/GPX/1/1 http://www.topografix.com/GPX/1/1/gpx.xsd" version="1.1" creator="VisuGPX - https://www.visugpx.com">
  <metadata>
    <name>81_Villeneuve sur Vère sentier du facteur</name>
  </metadata>
  <trk>
    <name><![CDATA[81_Villeneuve sur Vère sentier du facteur]]></name>
    <trkseg>
      <trkpt lat="44.00119" lon="2.02824">
        <ele>288</ele>
      </trkpt>
      <trkpt lat="44.00132" lon="2.02812">
        <ele>287</ele>
      </trkpt>
      <trkpt lat="44.00122" lon="2.02793">
        <ele>285</ele>
      </trkpt>
      <trkpt lat="44.00144" lon="2.02727">
        <ele>277</ele>
      </trkpt>
      <trkpt lat="44.00147" lon="2.02706">
        <ele>273</ele>
      </trkpt>
      <trkpt lat="44.00173" lon="2.02676">
        <ele>270</ele>
      </trkpt>
      <trkpt lat="44.00187" lon="2.02665">
        <ele>270</ele>
      </trkpt>
      <trkpt lat="44.00202" lon="2.02665">
        <ele>269</ele>
      </trkpt>
      <trkpt lat="44.0022" lon="2.02672">
        <ele>269</ele>
      </trkpt>
      <trkpt lat="44.00238" lon="2.02667">
        <ele>268</ele>
      </trkpt>
      <trkpt lat="44.00249" lon="2.02659">
        <ele>266</ele>
      </trkpt>
      <trkpt lat="44.00258" lon="2.02642">
        <ele>261</ele>
      </trkpt>
      <trkpt lat="44.00268" lon="2.02616">
        <ele>256</ele>
      </trkpt>
      <trkpt lat="44.00287" lon="2.02538">
        <ele>251</ele>
      </trkpt>
      <trkpt lat="44.00297" lon="2.02497">
        <ele>251</ele>
      </trkpt>
      <trkpt lat="44.00312" lon="2.02483">
        <ele>253</ele>
      </trkpt>
      <trkpt lat="44.00327" lon="2.02388">
        <ele>264</ele>
      </trkpt>
      <trkpt lat="44.00336" lon="2.02308">
        <ele>276</ele>
      </trkpt>
      <trkpt lat="44.00347" lon="2.02311">
        <ele>275</ele>
      </trkpt>
      <trkpt lat="44.00442" lon="2.02392">
        <ele>263</ele>
        <time>2016-11-07T01:07:54Z</time>
      </trkpt>
      <trkpt lat="44.00495" lon="2.02425">
        <ele>255</ele>
        <time>2016-11-07T01:08:19Z</time>
      </trkpt>
      <trkpt lat="44.00525" lon="2.02431">
        <ele>250</ele>
        <time>2016-11-07T01:08:25Z</time>
      </trkpt>
      <trkpt lat="44.00583" lon="2.0243">
        <ele>242</ele>
      </trkpt>
      <trkpt lat="44.00646" lon="2.02441">
        <ele>237</ele>
      </trkpt>
      <trkpt lat="44.00669" lon="2.02438">
        <ele>236</ele>
        <time>2016-11-07T01:09:10Z</time>
      </trkpt>
      <trkpt lat="44.00676" lon="2.02402">
        <ele>235</ele>
        <time>2016-11-07T01:09:13Z</time>
      </trkpt>
      <trkpt lat="44.00684" lon="2.02355">
        <ele>234</ele>
        <time>2016-11-07T01:09:18Z</time>
      </trkpt>
      <trkpt lat="44.0069" lon="2.02276">
        <ele>233</ele>
        <time>2016-11-07T01:09:27Z</time>
      </trkpt>
      <trkpt lat="44.00693" lon="2.02261">
        <ele>233</ele>
        <time>2016-11-07T01:09:42Z</time>
      </trkpt>
      <trkpt lat="44.00701" lon="2.02257">
        <ele>233</ele>
        <time>2016-11-07T01:09:45Z</time>
      </trkpt>
      <trkpt lat="44.00756" lon="2.0225">
        <ele>236</ele>
        <time>2016-11-07T01:09:47Z</time>
      </trkpt>
      <trkpt lat="44.0085" lon="2.02233">
        <ele>243</ele>
        <time>2016-11-07T01:10:20Z</time>
      </trkpt>
      <trkpt lat="44.00863" lon="2.02233">
        <ele>244</ele>
        <time>2016-11-07T01:10:27Z</time>
      </trkpt>
      <trkpt lat="44.00873" lon="2.02238">
        <ele>245</ele>
        <time>2016-11-07T01:10:30Z</time>
      </trkpt>
      <trkpt lat="44.00886" lon="2.0225">
        <ele>245</ele>
        <time>2016-11-07T01:10:33Z</time>
      </trkpt>
      <trkpt lat="44.00898" lon="2.02265">
        <ele>246</ele>
        <time>2016-11-07T01:10:37Z</time>
      </trkpt>
      <trkpt lat="44.00904" lon="2.02292">
        <ele>247</ele>
        <time>2016-11-07T01:10:44Z</time>
      </trkpt>
      <trkpt lat="44.0091" lon="2.02303">
        <ele>247</ele>
        <time>2016-11-07T01:10:46Z</time>
      </trkpt>
      <trkpt lat="44.00924" lon="2.02311">
        <ele>249</ele>
        <time>2016-11-07T01:10:49Z</time>
      </trkpt>
      <trkpt lat="44.00984" lon="2.02339">
        <ele>256</ele>
        <time>2016-11-07T01:10:53Z</time>
      </trkpt>
      <trkpt lat="44.01012" lon="2.02354">
        <ele>260</ele>
        <time>2016-11-07T01:11:10Z</time>
      </trkpt>
      <trkpt lat="44.01037" lon="2.0237">
        <ele>262</ele>
        <time>2016-11-07T01:11:18Z</time>
      </trkpt>
      <trkpt lat="44.01051" lon="2.02375">
        <ele>263</ele>
        <time>2016-11-07T01:11:25Z</time>
      </trkpt>
      <trkpt lat="44.01078" lon="2.02377">
        <ele>266</ele>
        <time>2016-11-07T01:11:29Z</time>
      </trkpt>
      <trkpt lat="44.01119" lon="2.02378">
        <ele>268</ele>
        <time>2016-11-07T01:11:36Z</time>
      </trkpt>
      <trkpt lat="44.01138" lon="2.02384">
        <ele>269</ele>
        <time>2016-11-07T01:11:47Z</time>
      </trkpt>
      <trkpt lat="44.01163" lon="2.02396">
        <ele>271</ele>
        <time>2016-11-07T01:11:52Z</time>
      </trkpt>
      <trkpt lat="44.01186" lon="2.0241">
        <ele>273</ele>
        <time>2016-11-07T01:11:59Z</time>
      </trkpt>
      <trkpt lat="44.01217" lon="2.02432">
        <ele>275</ele>
        <time>2016-11-07T01:12:06Z</time>
      </trkpt>
      <trkpt lat="44.01235" lon="2.0239">
        <ele>273</ele>
        <time>2016-11-07T01:12:15Z</time>
      </trkpt>
      <trkpt lat="44.01247" lon="2.02368">
        <ele>270</ele>
        <time>2016-11-07T01:12:24Z</time>
      </trkpt>
      <trkpt lat="44.01257" lon="2.02358">
        <ele>268</ele>
        <time>2016-11-07T01:12:29Z</time>
      </trkpt>
      <trkpt lat="44.01277" lon="2.02351">
        <ele>266</ele>
        <time>2016-11-07T01:12:32Z</time>
      </trkpt>
      <trkpt lat="44.01287" lon="2.02349">
        <ele>265</ele>
        <time>2016-11-07T01:12:38Z</time>
      </trkpt>
      <trkpt lat="44.01289" lon="2.02343">
        <ele>264</ele>
        <time>2016-11-07T01:12:41Z</time>
      </trkpt>
      <trkpt lat="44.01285" lon="2.02339">
        <ele>264</ele>
        <time>2016-11-07T01:12:42Z</time>
      </trkpt>
      <trkpt lat="44.01266" lon="2.02333">
        <ele>264</ele>
        <time>2016-11-07T01:12:43Z</time>
      </trkpt>
      <trkpt lat="44.0126" lon="2.02328">
        <ele>264</ele>
        <time>2016-11-07T01:12:48Z</time>
      </trkpt>
      <trkpt lat="44.01267" lon="2.02301">
        <ele>259</ele>
        <time>2016-11-07T01:12:52Z</time>
      </trkpt>
      <trkpt lat="44.01295" lon="2.02276">
        <ele>253</ele>
        <time>2016-11-07T01:12:55Z</time>
      </trkpt>
      <trkpt lat="44.01305" lon="2.02272">
        <ele>252</ele>
        <time>2016-11-07T01:13:04Z</time>
      </trkpt>
      <trkpt lat="44.01316" lon="2.02273">
        <ele>251</ele>
        <time>2016-11-07T01:13:07Z</time>
      </trkpt>
      <trkpt lat="44.01346" lon="2.0228">
        <ele>249</ele>
        <time>2016-11-07T01:13:16Z</time>
      </trkpt>
      <trkpt lat="44.01349" lon="2.02278">
        <ele>249</ele>
        <time>2016-11-07T01:13:18Z</time>
      </trkpt>
      <trkpt lat="44.0135" lon="2.02274">
        <ele>248</ele>
        <time>2016-11-07T01:13:19Z</time>
      </trkpt>
      <trkpt lat="44.01324" lon="2.02244">
        <ele>245</ele>
        <time>2016-11-07T01:13:23Z</time>
      </trkpt>
      <trkpt lat="44.01288" lon="2.02192">
        <ele>239</ele>
        <time>2016-11-07T01:13:37Z</time>
      </trkpt>
      <trkpt lat="44.01284" lon="2.02174">
        <ele>239</ele>
        <time>2016-11-07T01:13:43Z</time>
      </trkpt>
      <trkpt lat="44.01298" lon="2.02104">
        <ele>242</ele>
        <time>2016-11-07T01:13:53Z</time>
      </trkpt>
      <trkpt lat="44.01295" lon="2.0208">
        <ele>245</ele>
        <time>2016-11-07T01:14:01Z</time>
      </trkpt>
      <trkpt lat="44.01287" lon="2.02053">
        <ele>248</ele>
        <time>2016-11-07T01:14:06Z</time>
      </trkpt>
      <trkpt lat="44.01292" lon="2.02039">
        <ele>250</ele>
        <time>2016-11-07T01:14:12Z</time>
      </trkpt>
      <trkpt lat="44.01298" lon="2.0201">
        <ele>254</ele>
        <time>2016-11-07T01:14:15Z</time>
      </trkpt>
      <trkpt lat="44.01316" lon="2.01906">
        <ele>261</ele>
        <time>2016-11-07T01:14:37Z</time>
      </trkpt>
      <trkpt lat="44.01321" lon="2.01896">
        <ele>261</ele>
        <time>2016-11-07T01:14:42Z</time>
      </trkpt>
      <trkpt lat="44.01328" lon="2.01891">
        <ele>261</ele>
        <time>2016-11-07T01:14:44Z</time>
      </trkpt>
      <trkpt lat="44.01336" lon="2.0189">
        <ele>262</ele>
        <time>2016-11-07T01:14:46Z</time>
      </trkpt>
      <trkpt lat="44.01348" lon="2.01897">
        <ele>263</ele>
      </trkpt>
      <trkpt lat="44.01355" lon="2.01904">
        <ele>263</ele>
        <time>2016-11-07T01:14:51Z</time>
      </trkpt>
      <trkpt lat="44.01379" lon="2.01936">
        <ele>263</ele>
        <time>2016-11-07T01:14:54Z</time>
      </trkpt>
      <trkpt lat="44.01388" lon="2.01942">
        <ele>264</ele>
        <time>2016-11-07T01:15:03Z</time>
      </trkpt>
      <trkpt lat="44.01395" lon="2.01945">
        <ele>264</ele>
        <time>2016-11-07T01:15:06Z</time>
      </trkpt>
      <trkpt lat="44.01404" lon="2.01943">
        <ele>265</ele>
        <time>2016-11-07T01:15:08Z</time>
      </trkpt>
      <trkpt lat="44.01413" lon="2.01936">
        <ele>266</ele>
        <time>2016-11-07T01:15:10Z</time>
      </trkpt>
      <trkpt lat="44.01425" lon="2.01925">
        <ele>266</ele>
      </trkpt>
      <trkpt lat="44.01428" lon="2.01911">
        <ele>267</ele>
      </trkpt>
      <trkpt lat="44.0143" lon="2.01801">
        <ele>271</ele>
        <time>2016-11-07T01:15:21Z</time>
      </trkpt>
      <trkpt lat="44.01467" lon="2.01545">
        <ele>282</ele>
        <time>2016-11-07T01:15:55Z</time>
      </trkpt>
      <trkpt lat="44.01471" lon="2.01519">
        <ele>282</ele>
      </trkpt>
      <trkpt lat="44.01478" lon="2.0151">
        <ele>283</ele>
      </trkpt>
      <trkpt lat="44.0149" lon="2.01497">
        <ele>283</ele>
      </trkpt>
      <trkpt lat="44.01509" lon="2.01486">
        <ele>283</ele>
        <time>2016-11-07T01:16:42Z</time>
      </trkpt>
      <trkpt lat="44.01533" lon="2.01462">
        <ele>284</ele>
        <time>2016-11-07T01:16:50Z</time>
      </trkpt>
      <trkpt lat="44.01626" lon="2.01335">
        <ele>284</ele>
        <time>2016-11-07T01:17:09Z</time>
      </trkpt>
      <trkpt lat="44.01666" lon="2.01287">
        <ele>284</ele>
      </trkpt>
      <trkpt lat="44.01695" lon="2.01257">
        <ele>284</ele>
        <time>2016-11-07T01:17:33Z</time>
      </trkpt>
      <trkpt lat="44.01717" lon="2.01236">
        <ele>285</ele>
      </trkpt>
      <trkpt lat="44.01761" lon="2.01197">
        <ele>286</ele>
        <time>2016-11-07T01:17:57Z</time>
      </trkpt>
      <trkpt lat="44.01858" lon="2.01112">
        <ele>288</ele>
        <time>2016-11-07T01:18:18Z</time>
      </trkpt>
      <trkpt lat="44.01912" lon="2.01067">
        <ele>289</ele>
        <time>2016-11-07T01:18:49Z</time>
      </trkpt>
      <trkpt lat="44.01946" lon="2.01044">
        <ele>290</ele>
        <time>2016-11-07T01:19:06Z</time>
      </trkpt>
      <trkpt lat="44.02053" lon="2.00984">
        <ele>292</ele>
        <time>2016-11-07T01:19:16Z</time>
      </trkpt>
      <trkpt lat="44.02079" lon="2.00968">
        <ele>293</ele>
        <time>2016-11-07T01:19:47Z</time>
      </trkpt>
      <trkpt lat="44.02096" lon="2.00954">
        <ele>293</ele>
        <time>2016-11-07T01:19:55Z</time>
      </trkpt>
      <trkpt lat="44.02108" lon="2.00943">
        <ele>294</ele>
      </trkpt>
      <trkpt lat="44.02135" lon="2.00977">
        <ele>294</ele>
        <time>2016-11-07T01:20:06Z</time>
      </trkpt>
      <trkpt lat="44.02172" lon="2.01022">
        <ele>293</ele>
        <time>2016-11-07T01:20:15Z</time>
      </trkpt>
      <trkpt lat="44.02241" lon="2.01103">
        <ele>291</ele>
        <time>2016-11-07T01:20:28Z</time>
      </trkpt>
      <trkpt lat="44.02278" lon="2.01149">
        <ele>287</ele>
        <time>2016-11-07T01:20:52Z</time>
      </trkpt>
      <trkpt lat="44.02287" lon="2.01163">
        <ele>285</ele>
        <time>2016-11-07T01:21:05Z</time>
      </trkpt>
      <trkpt lat="44.02317" lon="2.0121">
        <ele>279</ele>
        <time>2016-11-07T01:21:09Z</time>
      </trkpt>
      <trkpt lat="44.02333" lon="2.01229">
        <ele>278</ele>
        <time>2016-11-07T01:21:21Z</time>
      </trkpt>
      <trkpt lat="44.02362" lon="2.01257">
        <ele>278</ele>
        <time>2016-11-07T01:21:32Z</time>
      </trkpt>
      <trkpt lat="44.02367" lon="2.01267">
        <ele>278</ele>
        <time>2016-11-07T01:21:36Z</time>
      </trkpt>
      <trkpt lat="44.02369" lon="2.01288">
        <ele>278</ele>
        <time>2016-11-07T01:21:39Z</time>
      </trkpt>
      <trkpt lat="44.02363" lon="2.01333">
        <ele>277</ele>
        <time>2016-11-07T01:21:42Z</time>
      </trkpt>
      <trkpt lat="44.02365" lon="2.0134">
        <ele>277</ele>
        <time>2016-11-07T01:21:51Z</time>
      </trkpt>
      <trkpt lat="44.02369" lon="2.01344">
        <ele>277</ele>
        <time>2016-11-07T01:21:52Z</time>
      </trkpt>
      <trkpt lat="44.02391" lon="2.01338">
        <ele>277</ele>
        <time>2016-11-07T01:21:55Z</time>
      </trkpt>
      <trkpt lat="44.02401" lon="2.01338">
        <ele>277</ele>
        <time>2016-11-07T01:21:59Z</time>
      </trkpt>
      <trkpt lat="44.02405" lon="2.01341">
        <ele>277</ele>
        <time>2016-11-07T01:22:02Z</time>
      </trkpt>
      <trkpt lat="44.02414" lon="2.01368">
        <ele>277</ele>
        <time>2016-11-07T01:22:03Z</time>
      </trkpt>
      <trkpt lat="44.02421" lon="2.01393">
        <ele>277</ele>
        <time>2016-11-07T01:22:13Z</time>
      </trkpt>
      <trkpt lat="44.02426" lon="2.01397">
        <ele>278</ele>
        <time>2016-11-07T01:22:14Z</time>
      </trkpt>
      <trkpt lat="44.02426" lon="2.01402">
        <ele>278</ele>
        <time>2016-11-07T01:22:16Z</time>
      </trkpt>
      <trkpt lat="44.02421" lon="2.01417">
        <ele>278</ele>
        <time>2016-11-07T01:22:17Z</time>
      </trkpt>
      <trkpt lat="44.02412" lon="2.01432">
        <ele>278</ele>
        <time>2016-11-07T01:22:20Z</time>
      </trkpt>
      <trkpt lat="44.02407" lon="2.01447">
        <ele>278</ele>
        <time>2016-11-07T01:22:24Z</time>
      </trkpt>
      <trkpt lat="44.02403" lon="2.01472">
        <ele>279</ele>
        <time>2016-11-07T01:22:27Z</time>
      </trkpt>
      <trkpt lat="44.02403" lon="2.0148">
        <ele>279</ele>
        <time>2016-11-07T01:22:32Z</time>
      </trkpt>
      <trkpt lat="44.02405" lon="2.01485">
        <ele>279</ele>
        <time>2016-11-07T01:22:34Z</time>
      </trkpt>
      <trkpt lat="44.02421" lon="2.01465">
        <ele>280</ele>
        <time>2016-11-07T01:22:35Z</time>
      </trkpt>
      <trkpt lat="44.02438" lon="2.01459">
        <ele>282</ele>
        <time>2016-11-07T01:22:41Z</time>
      </trkpt>
      <trkpt lat="44.02454" lon="2.0146">
        <ele>283</ele>
        <time>2016-11-07T01:22:46Z</time>
      </trkpt>
      <trkpt lat="44.02464" lon="2.01474">
        <ele>285</ele>
        <time>2016-11-07T01:22:50Z</time>
      </trkpt>
      <trkpt lat="44.02573" lon="2.01651">
        <ele>291</ele>
        <time>2016-11-07T01:23:03Z</time>
      </trkpt>
      <trkpt lat="44.02607" lon="2.01704">
        <ele>289</ele>
      </trkpt>
      <trkpt lat="44.02661" lon="2.01807">
        <ele>285</ele>
        <time>2016-11-07T01:24:00Z</time>
      </trkpt>
      <trkpt lat="44.02691" lon="2.01869">
        <ele>283</ele>
        <time>2016-11-07T01:24:17Z</time>
      </trkpt>
      <trkpt lat="44.02749" lon="2.01961">
        <ele>281</ele>
      </trkpt>
      <trkpt lat="44.02764" lon="2.01984">
        <ele>280</ele>
      </trkpt>
      <trkpt lat="44.02777" lon="2.02017">
        <ele>278</ele>
      </trkpt>
      <trkpt lat="44.02785" lon="2.02035">
        <ele>277</ele>
      </trkpt>
      <trkpt lat="44.02792" lon="2.02042">
        <ele>276</ele>
        <time>2016-11-07T01:25:11Z</time>
      </trkpt>
      <trkpt lat="44.02806" lon="2.02054">
        <ele>275</ele>
        <time>2016-11-07T01:25:14Z</time>
      </trkpt>
      <trkpt lat="44.02834" lon="2.02065">
        <ele>274</ele>
        <time>2016-11-07T01:25:18Z</time>
      </trkpt>
      <trkpt lat="44.02873" lon="2.02077">
        <ele>274</ele>
      </trkpt>
      <trkpt lat="44.02877" lon="2.02084">
        <ele>274</ele>
      </trkpt>
      <trkpt lat="44.02877" lon="2.0211">
        <ele>272</ele>
      </trkpt>
      <trkpt lat="44.02883" lon="2.02161">
        <ele>271</ele>
      </trkpt>
      <trkpt lat="44.02885" lon="2.02231">
        <ele>271</ele>
      </trkpt>
      <trkpt lat="44.02881" lon="2.02244">
        <ele>272</ele>
        <time>2016-11-07T01:26:07Z</time>
      </trkpt>
      <trkpt lat="44.02826" lon="2.02343">
        <ele>274</ele>
        <time>2016-11-07T01:26:10Z</time>
      </trkpt>
      <trkpt lat="44.02784" lon="2.024">
        <ele>274</ele>
        <time>2016-11-07T01:26:46Z</time>
      </trkpt>
      <trkpt lat="44.02778" lon="2.02425">
        <ele>275</ele>
        <time>2016-11-07T01:26:49Z</time>
      </trkpt>
      <trkpt lat="44.0277" lon="2.02445">
        <ele>274</ele>
        <time>2016-11-07T01:26:54Z</time>
      </trkpt>
      <trkpt lat="44.02761" lon="2.0246">
        <ele>274</ele>
        <time>2016-11-07T01:26:58Z</time>
      </trkpt>
      <trkpt lat="44.02764" lon="2.02469">
        <ele>275</ele>
        <time>2016-11-07T01:27:02Z</time>
      </trkpt>
      <trkpt lat="44.02778" lon="2.02483">
        <ele>275</ele>
        <time>2016-11-07T01:27:04Z</time>
      </trkpt>
      <trkpt lat="44.02792" lon="2.02503">
        <ele>275</ele>
        <time>2016-11-07T01:27:09Z</time>
      </trkpt>
      <trkpt lat="44.02819" lon="2.02583">
        <ele>275</ele>
        <time>2016-11-07T01:27:18Z</time>
      </trkpt>
      <trkpt lat="44.02848" lon="2.02632">
        <ele>276</ele>
        <time>2016-11-07T01:27:31Z</time>
      </trkpt>
      <trkpt lat="44.02871" lon="2.02661">
        <ele>276</ele>
      </trkpt>
      <trkpt lat="44.02873" lon="2.02669">
        <ele>276</ele>
      </trkpt>
      <trkpt lat="44.02869" lon="2.02677">
        <ele>275</ele>
      </trkpt>
      <trkpt lat="44.02805" lon="2.0271">
        <ele>267</ele>
      </trkpt>
      <trkpt lat="44.02804" lon="2.02716">
        <ele>266</ele>
      </trkpt>
      <trkpt lat="44.0281" lon="2.02735">
        <ele>265</ele>
        <time>2016-11-07T01:28:15Z</time>
      </trkpt>
      <trkpt lat="44.02866" lon="2.02822">
        <ele>263</ele>
      </trkpt>
      <trkpt lat="44.02888" lon="2.02853">
        <ele>262</ele>
      </trkpt>
      <trkpt lat="44.02915" lon="2.02877">
        <ele>262</ele>
      </trkpt>
      <trkpt lat="44.02924" lon="2.0289">
        <ele>261</ele>
      </trkpt>
      <trkpt lat="44.02935" lon="2.02919">
        <ele>260</ele>
        <time>2016-11-07T01:29:07Z</time>
      </trkpt>
      <trkpt lat="44.02904" lon="2.0296">
        <ele>257</ele>
        <time>2016-11-07T01:29:10Z</time>
      </trkpt>
      <trkpt lat="44.02892" lon="2.02968">
        <ele>257</ele>
        <time>2016-11-07T01:29:21Z</time>
      </trkpt>
      <trkpt lat="44.02878" lon="2.02973">
        <ele>258</ele>
      </trkpt>
      <trkpt lat="44.02863" lon="2.02972">
        <ele>258</ele>
      </trkpt>
      <trkpt lat="44.0284" lon="2.02986">
        <ele>259</ele>
      </trkpt>
      <trkpt lat="44.02782" lon="2.03021">
        <ele>264</ele>
      </trkpt>
      <trkpt lat="44.02762" lon="2.03039">
        <ele>265</ele>
      </trkpt>
      <trkpt lat="44.02755" lon="2.03047">
        <ele>266</ele>
        <time>2016-11-07T01:29:56Z</time>
      </trkpt>
      <trkpt lat="44.02721" lon="2.03058">
        <ele>273</ele>
      </trkpt>
      <trkpt lat="44.02701" lon="2.03073">
        <ele>276</ele>
      </trkpt>
      <trkpt lat="44.02633" lon="2.0314">
        <ele>280</ele>
        <time>2016-11-07T01:30:44Z</time>
      </trkpt>
      <trkpt lat="44.02575" lon="2.032">
        <ele>283</ele>
        <time>2016-11-07T01:30:44Z</time>
      </trkpt>
      <trkpt lat="44.0252" lon="2.03242">
        <ele>284</ele>
        <time>2016-11-07T01:31:08Z</time>
      </trkpt>
      <trkpt lat="44.02421" lon="2.03315">
        <ele>288</ele>
      </trkpt>
      <trkpt lat="44.02396" lon="2.03343">
        <ele>289</ele>
        <time>2016-11-07T01:31:51Z</time>
      </trkpt>
      <trkpt lat="44.02353" lon="2.034">
        <ele>290</ele>
      </trkpt>
      <trkpt lat="44.02346" lon="2.03402">
        <ele>290</ele>
      </trkpt>
      <trkpt lat="44.02339" lon="2.03399">
        <ele>289</ele>
      </trkpt>
      <trkpt lat="44.02313" lon="2.03371">
        <ele>288</ele>
      </trkpt>
      <trkpt lat="44.02306" lon="2.03368">
        <ele>288</ele>
      </trkpt>
      <trkpt lat="44.02297" lon="2.03371">
        <ele>287</ele>
      </trkpt>
      <trkpt lat="44.02288" lon="2.03374">
        <ele>287</ele>
        <time>2016-11-07T01:32:31Z</time>
      </trkpt>
      <trkpt lat="44.0219" lon="2.03439">
        <ele>286</ele>
      </trkpt>
      <trkpt lat="44.02162" lon="2.03463">
        <ele>286</ele>
      </trkpt>
      <trkpt lat="44.02152" lon="2.03468">
        <ele>286</ele>
      </trkpt>
      <trkpt lat="44.02139" lon="2.03469">
        <ele>286</ele>
      </trkpt>
      <trkpt lat="44.02112" lon="2.03465">
        <ele>286</ele>
      </trkpt>
      <trkpt lat="44.02049" lon="2.03468">
        <ele>286</ele>
        <time>2016-11-07T01:33:18Z</time>
      </trkpt>
      <trkpt lat="44.01987" lon="2.03387">
        <ele>287</ele>
        <time>2016-11-07T01:33:47Z</time>
      </trkpt>
      <trkpt lat="44.01903" lon="2.03274">
        <ele>287</ele>
      </trkpt>
      <trkpt lat="44.01828" lon="2.03199">
        <ele>284</ele>
      </trkpt>
      <trkpt lat="44.01807" lon="2.03181">
        <ele>284</ele>
      </trkpt>
      <trkpt lat="44.01792" lon="2.03172">
        <ele>283</ele>
      </trkpt>
      <trkpt lat="44.01752" lon="2.0316">
        <ele>282</ele>
      </trkpt>
      <trkpt lat="44.01628" lon="2.0308">
        <ele>283</ele>
        <time>2016-11-07T01:35:22Z</time>
      </trkpt>
      <trkpt lat="44.01536" lon="2.03054">
        <ele>283</ele>
        <time>2016-11-07T01:36:04Z</time>
      </trkpt>
      <trkpt lat="44.01523" lon="2.03076">
        <ele>282</ele>
      </trkpt>
      <trkpt lat="44.01474" lon="2.03193">
        <ele>281</ele>
      </trkpt>
      <trkpt lat="44.01434" lon="2.03277">
        <ele>279</ele>
      </trkpt>
      <trkpt lat="44.01408" lon="2.03334">
        <ele>274</ele>
      </trkpt>
      <trkpt lat="44.01399" lon="2.03357">
        <ele>272</ele>
      </trkpt>
      <trkpt lat="44.01392" lon="2.03361">
        <ele>271</ele>
      </trkpt>
      <trkpt lat="44.01365" lon="2.03349">
        <ele>271</ele>
      </trkpt>
      <trkpt lat="44.01353" lon="2.03339">
        <ele>271</ele>
      </trkpt>
      <trkpt lat="44.01336" lon="2.03307">
        <ele>271</ele>
      </trkpt>
      <trkpt lat="44.01311" lon="2.03277">
        <ele>270</ele>
      </trkpt>
      <trkpt lat="44.01263" lon="2.03218">
        <ele>271</ele>
      </trkpt>
      <trkpt lat="44.01225" lon="2.03172">
        <ele>272</ele>
      </trkpt>
      <trkpt lat="44.01178" lon="2.03122">
        <ele>274</ele>
      </trkpt>
      <trkpt lat="44.01091" lon="2.03306">
        <ele>260</ele>
      </trkpt>
      <trkpt lat="44.01095" lon="2.03313">
        <ele>260</ele>
      </trkpt>
      <trkpt lat="44.01113" lon="2.03315">
        <ele>260</ele>
      </trkpt>
      <trkpt lat="44.01126" lon="2.03328">
        <ele>260</ele>
      </trkpt>
      <trkpt lat="44.01138" lon="2.03351">
        <ele>260</ele>
      </trkpt>
      <trkpt lat="44.01161" lon="2.03388">
        <ele>260</ele>
      </trkpt>
      <trkpt lat="44.01193" lon="2.0342">
        <ele>260</ele>
      </trkpt>
      <trkpt lat="44.01212" lon="2.03448">
        <ele>259</ele>
      </trkpt>
      <trkpt lat="44.01232" lon="2.03462">
        <ele>259</ele>
      </trkpt>
      <trkpt lat="44.01261" lon="2.03482">
        <ele>258</ele>
        <time>2016-11-07T01:19:00Z</time>
      </trkpt>
      <trkpt lat="44.01274" lon="2.03509">
        <ele>258</ele>
        <time>2016-11-07T01:19:03Z</time>
      </trkpt>
      <trkpt lat="44.0128" lon="2.03523">
        <ele>258</ele>
        <time>2016-11-07T01:19:09Z</time>
      </trkpt>
      <trkpt lat="44.01287" lon="2.03532">
        <ele>258</ele>
        <time>2016-11-07T01:19:12Z</time>
      </trkpt>
      <trkpt lat="44.01356" lon="2.03582">
        <ele>257</ele>
        <time>2016-11-07T01:19:15Z</time>
      </trkpt>
      <trkpt lat="44.01372" lon="2.03591">
        <ele>257</ele>
        <time>2016-11-07T01:19:36Z</time>
      </trkpt>
      <trkpt lat="44.01404" lon="2.036">
        <ele>256</ele>
        <time>2016-11-07T01:19:41Z</time>
      </trkpt>
      <trkpt lat="44.01419" lon="2.03611">
        <ele>257</ele>
      </trkpt>
      <trkpt lat="44.01455" lon="2.03629">
        <ele>258</ele>
      </trkpt>
      <trkpt lat="44.01502" lon="2.0369">
        <ele>258</ele>
      </trkpt>
      <trkpt lat="44.01537" lon="2.03719">
        <ele>259</ele>
      </trkpt>
      <trkpt lat="44.01623" lon="2.03812">
        <ele>257</ele>
      </trkpt>
      <trkpt lat="44.01646" lon="2.03841">
        <ele>256</ele>
      </trkpt>
      <trkpt lat="44.01661" lon="2.03863">
        <ele>256</ele>
      </trkpt>
      <trkpt lat="44.01671" lon="2.03888">
        <ele>256</ele>
      </trkpt>
      <trkpt lat="44.01705" lon="2.03991">
        <ele>256</ele>
      </trkpt>
      <trkpt lat="44.01719" lon="2.04021">
        <ele>257</ele>
      </trkpt>
      <trkpt lat="44.01737" lon="2.04045">
        <ele>258</ele>
      </trkpt>
      <trkpt lat="44.01759" lon="2.04062">
        <ele>259</ele>
      </trkpt>
      <trkpt lat="44.01769" lon="2.04081">
        <ele>260</ele>
      </trkpt>
      <trkpt lat="44.01784" lon="2.04116">
        <ele>260</ele>
      </trkpt>
      <trkpt lat="44.01806" lon="2.04178">
        <ele>261</ele>
      </trkpt>
      <trkpt lat="44.01829" lon="2.04245">
        <ele>260</ele>
      </trkpt>
      <trkpt lat="44.01843" lon="2.04309">
        <ele>260</ele>
      </trkpt>
      <trkpt lat="44.01841" lon="2.04317">
        <ele>259</ele>
      </trkpt>
      <trkpt lat="44.01836" lon="2.04323">
        <ele>259</ele>
      </trkpt>
      <trkpt lat="44.01777" lon="2.04339">
        <ele>258</ele>
      </trkpt>
      <trkpt lat="44.01761" lon="2.04355">
        <ele>259</ele>
      </trkpt>
      <trkpt lat="44.01752" lon="2.04355">
        <ele>259</ele>
      </trkpt>
      <trkpt lat="44.01736" lon="2.04347">
        <ele>259</ele>
        <time>2016-11-07T01:23:25Z</time>
      </trkpt>
      <trkpt lat="44.01727" lon="2.04351">
        <ele>260</ele>
        <time>2016-11-07T01:23:28Z</time>
      </trkpt>
      <trkpt lat="44.0172" lon="2.04359">
        <ele>260</ele>
      </trkpt>
      <trkpt lat="44.01719" lon="2.04373">
        <ele>261</ele>
      </trkpt>
      <trkpt lat="44.01725" lon="2.04393">
        <ele>263</ele>
      </trkpt>
      <trkpt lat="44.0173" lon="2.04413">
        <ele>266</ele>
      </trkpt>
      <trkpt lat="44.01732" lon="2.04428">
        <ele>268</ele>
      </trkpt>
      <trkpt lat="44.0173" lon="2.04444">
        <ele>270</ele>
      </trkpt>
      <trkpt lat="44.01724" lon="2.04484">
        <ele>276</ele>
      </trkpt>
      <trkpt lat="44.01715" lon="2.04508">
        <ele>280</ele>
      </trkpt>
      <trkpt lat="44.01697" lon="2.04538">
        <ele>282</ele>
      </trkpt>
      <trkpt lat="44.01659" lon="2.04612">
        <ele>285</ele>
      </trkpt>
      <trkpt lat="44.01587" lon="2.04748">
        <ele>292</ele>
      </trkpt>
      <trkpt lat="44.01572" lon="2.04766">
        <ele>292</ele>
      </trkpt>
      <trkpt lat="44.01492" lon="2.04856">
        <ele>295</ele>
      </trkpt>
      <trkpt lat="44.01392" lon="2.0496">
        <ele>301</ele>
        <time>2016-11-07T01:25:16Z</time>
      </trkpt>
      <trkpt lat="44.01337" lon="2.05025">
        <ele>301</ele>
        <time>2016-11-07T01:26:07Z</time>
      </trkpt>
      <trkpt lat="44.0131" lon="2.05059">
        <ele>301</ele>
      </trkpt>
      <trkpt lat="44.01301" lon="2.05077">
        <ele>301</ele>
      </trkpt>
      <trkpt lat="44.01296" lon="2.05075">
        <ele>300</ele>
      </trkpt>
      <trkpt lat="44.01251" lon="2.04966">
        <ele>300</ele>
      </trkpt>
      <trkpt lat="44.01242" lon="2.04948">
        <ele>301</ele>
        <time>2016-11-07T01:26:45Z</time>
      </trkpt>
      <trkpt lat="44.01205" lon="2.04887">
        <ele>302</ele>
      </trkpt>
      <trkpt lat="44.01182" lon="2.04853">
        <ele>302</ele>
      </trkpt>
      <trkpt lat="44.01166" lon="2.04823">
        <ele>302</ele>
        <time>2016-11-07T01:27:11Z</time>
      </trkpt>
      <trkpt lat="44.01151" lon="2.04794">
        <ele>302</ele>
      </trkpt>
      <trkpt lat="44.01118" lon="2.0472">
        <ele>302</ele>
        <time>2016-11-07T01:28:06Z</time>
      </trkpt>
      <trkpt lat="44.01106" lon="2.04687">
        <ele>302</ele>
        <time>2016-11-07T01:28:06Z</time>
      </trkpt>
      <trkpt lat="44.01098" lon="2.0466">
        <ele>302</ele>
        <time>2016-11-07T01:28:13Z</time>
      </trkpt>
      <trkpt lat="44.0108" lon="2.0458">
        <ele>302</ele>
      </trkpt>
      <trkpt lat="44.00973" lon="2.04494">
        <ele>295</ele>
      </trkpt>
      <trkpt lat="44.00959" lon="2.04496">
        <ele>294</ele>
      </trkpt>
      <trkpt lat="44.00873" lon="2.04554">
        <ele>284</ele>
      </trkpt>
      <trkpt lat="44.00868" lon="2.04567">
        <ele>284</ele>
      </trkpt>
      <trkpt lat="44.00869" lon="2.04594">
        <ele>284</ele>
        <time>2016-11-07T01:22:56Z</time>
      </trkpt>
      <trkpt lat="44.00872" lon="2.04602">
        <ele>284</ele>
        <time>2016-11-07T01:23:03Z</time>
      </trkpt>
      <trkpt lat="44.00879" lon="2.04611">
        <ele>283</ele>
        <time>2016-11-07T01:23:05Z</time>
      </trkpt>
      <trkpt lat="44.00906" lon="2.04641">
        <ele>282</ele>
        <time>2016-11-07T01:23:08Z</time>
      </trkpt>
      <trkpt lat="44.00909" lon="2.04651">
        <ele>282</ele>
        <time>2016-11-07T01:23:17Z</time>
      </trkpt>
      <trkpt lat="44.00908" lon="2.0466">
        <ele>282</ele>
        <time>2016-11-07T01:23:19Z</time>
      </trkpt>
      <trkpt lat="44.00904" lon="2.04667">
        <ele>281</ele>
        <time>2016-11-07T01:23:21Z</time>
      </trkpt>
      <trkpt lat="44.00894" lon="2.04679">
        <ele>281</ele>
        <time>2016-11-07T01:23:23Z</time>
      </trkpt>
      <trkpt lat="44.00883" lon="2.04688">
        <ele>281</ele>
        <time>2016-11-07T01:23:27Z</time>
      </trkpt>
      <trkpt lat="44.00868" lon="2.04694">
        <ele>280</ele>
        <time>2016-11-07T01:23:30Z</time>
      </trkpt>
      <trkpt lat="44.00809" lon="2.04682">
        <ele>274</ele>
        <time>2016-11-07T01:23:39Z</time>
      </trkpt>
      <trkpt lat="44.00799" lon="2.04684">
        <ele>272</ele>
        <time>2016-11-07T01:23:50Z</time>
      </trkpt>
      <trkpt lat="44.00792" lon="2.04691">
        <ele>271</ele>
        <time>2016-11-07T01:23:53Z</time>
      </trkpt>
      <trkpt lat="44.00773" lon="2.04736">
        <ele>271</ele>
        <time>2016-11-07T01:23:55Z</time>
      </trkpt>
      <trkpt lat="44.00772" lon="2.04766">
        <ele>270</ele>
        <time>2016-11-07T01:24:07Z</time>
      </trkpt>
      <trkpt lat="44.00814" lon="2.04843">
        <ele>267</ele>
        <time>2016-11-07T01:24:11Z</time>
      </trkpt>
      <trkpt lat="44.00817" lon="2.04855">
        <ele>267</ele>
        <time>2016-11-07T01:24:30Z</time>
      </trkpt>
      <trkpt lat="44.00815" lon="2.04863">
        <ele>266</ele>
        <time>2016-11-07T01:24:32Z</time>
      </trkpt>
      <trkpt lat="44.00785" lon="2.0488">
        <ele>263</ele>
        <time>2016-11-07T01:24:34Z</time>
      </trkpt>
      <trkpt lat="44.00752" lon="2.04889">
        <ele>264</ele>
        <time>2016-11-07T01:24:43Z</time>
      </trkpt>
      <trkpt lat="44.0073" lon="2.04901">
        <ele>265</ele>
        <time>2016-11-07T01:24:52Z</time>
      </trkpt>
      <trkpt lat="44.00721" lon="2.04912">
        <ele>267</ele>
        <time>2016-11-07T01:24:58Z</time>
      </trkpt>
      <trkpt lat="44.00698" lon="2.04956">
        <ele>272</ele>
        <time>2016-11-07T01:25:01Z</time>
      </trkpt>
      <trkpt lat="44.00665" lon="2.0501">
        <ele>277</ele>
        <time>2016-11-07T01:25:11Z</time>
      </trkpt>
      <trkpt lat="44.00644" lon="2.05039">
        <ele>279</ele>
        <time>2016-11-07T01:25:25Z</time>
      </trkpt>
      <trkpt lat="44.00623" lon="2.05063">
        <ele>280</ele>
        <time>2016-11-07T01:25:33Z</time>
      </trkpt>
      <trkpt lat="44.00592" lon="2.05127">
        <ele>284</ele>
        <time>2016-11-07T01:25:47Z</time>
      </trkpt>
      <trkpt lat="44.00572" lon="2.05198">
        <ele>286</ele>
      </trkpt>
      <trkpt lat="44.00568" lon="2.0521">
        <ele>286</ele>
      </trkpt>
      <trkpt lat="44.00557" lon="2.05227">
        <ele>286</ele>
      </trkpt>
      <trkpt lat="44.00542" lon="2.05242">
        <ele>286</ele>
      </trkpt>
      <trkpt lat="44.00536" lon="2.05229">
        <ele>286</ele>
      </trkpt>
      <trkpt lat="44.00532" lon="2.05243">
        <ele>285</ele>
      </trkpt>
      <trkpt lat="44.00517" lon="2.05258">
        <ele>285</ele>
      </trkpt>
      <trkpt lat="44.00497" lon="2.05274">
        <ele>284</ele>
      </trkpt>
      <trkpt lat="44.00481" lon="2.05284">
        <ele>284</ele>
        <time>2016-11-07T01:26:37Z</time>
      </trkpt>
      <trkpt lat="44.00471" lon="2.05285">
        <ele>283</ele>
        <time>2016-11-07T01:26:44Z</time>
      </trkpt>
      <trkpt lat="44.00449" lon="2.05276">
        <ele>283</ele>
        <time>2016-11-07T01:26:47Z</time>
      </trkpt>
      <trkpt lat="44.00434" lon="2.05273">
        <ele>282</ele>
        <time>2016-11-07T01:26:53Z</time>
      </trkpt>
      <trkpt lat="44.0042" lon="2.05276">
        <ele>282</ele>
        <time>2016-11-07T01:26:57Z</time>
      </trkpt>
      <trkpt lat="44.00376" lon="2.05297">
        <ele>281</ele>
        <time>2016-11-07T01:27:01Z</time>
      </trkpt>
      <trkpt lat="44.00336" lon="2.05346">
        <ele>281</ele>
        <time>2016-11-07T01:27:13Z</time>
      </trkpt>
      <trkpt lat="44.00314" lon="2.05381">
        <ele>278</ele>
        <time>2016-11-07T01:27:31Z</time>
      </trkpt>
      <trkpt lat="44.00277" lon="2.0541">
        <ele>272</ele>
        <time>2016-11-07T01:27:36Z</time>
      </trkpt>
      <trkpt lat="44.00262" lon="2.05415">
        <ele>270</ele>
        <time>2016-11-07T01:27:47Z</time>
      </trkpt>
      <trkpt lat="44.00248" lon="2.05413">
        <ele>267</ele>
        <time>2016-11-07T01:27:51Z</time>
      </trkpt>
      <trkpt lat="44.00237" lon="2.05406">
        <ele>266</ele>
        <time>2016-11-07T01:27:55Z</time>
      </trkpt>
      <trkpt lat="44.00226" lon="2.05392">
        <ele>264</ele>
        <time>2016-11-07T01:27:58Z</time>
      </trkpt>
      <trkpt lat="44.00216" lon="2.05372">
        <ele>262</ele>
        <time>2016-11-07T01:28:02Z</time>
      </trkpt>
      <trkpt lat="44.0021" lon="2.0537">
        <ele>261</ele>
        <time>2016-11-07T01:28:07Z</time>
      </trkpt>
      <trkpt lat="44.00203" lon="2.05378">
        <ele>260</ele>
        <time>2016-11-07T01:28:09Z</time>
      </trkpt>
      <trkpt lat="44.00191" lon="2.0542">
        <ele>259</ele>
        <time>2016-11-07T01:28:11Z</time>
      </trkpt>
      <trkpt lat="44.00183" lon="2.05433">
        <ele>258</ele>
      </trkpt>
      <trkpt lat="44.00168" lon="2.05448">
        <ele>257</ele>
        <time>2016-11-07T01:28:20Z</time>
      </trkpt>
      <trkpt lat="44.00148" lon="2.05456">
        <ele>257</ele>
        <time>2016-11-07T01:28:28Z</time>
      </trkpt>
      <trkpt lat="44.00134" lon="2.05458">
        <ele>256</ele>
        <time>2016-11-07T01:28:34Z</time>
      </trkpt>
      <trkpt lat="44.00086" lon="2.05478">
        <ele>256</ele>
        <time>2016-11-07T01:28:45Z</time>
      </trkpt>
      <trkpt lat="44.00075" lon="2.05476">
        <ele>256</ele>
        <time>2016-11-07T01:28:52Z</time>
      </trkpt>
      <trkpt lat="44.00063" lon="2.05469">
        <ele>256</ele>
        <time>2016-11-07T01:28:55Z</time>
      </trkpt>
      <trkpt lat="44.00054" lon="2.05458">
        <ele>256</ele>
        <time>2016-11-07T01:28:58Z</time>
      </trkpt>
      <trkpt lat="44.00036" lon="2.05429">
        <ele>256</ele>
        <time>2016-11-07T01:29:06Z</time>
      </trkpt>
      <trkpt lat="44.0003" lon="2.05425">
        <ele>256</ele>
        <time>2016-11-07T01:29:08Z</time>
      </trkpt>
      <trkpt lat="44.00018" lon="2.05429">
        <ele>256</ele>
        <time>2016-11-07T01:29:10Z</time>
      </trkpt>
      <trkpt lat="43.99967" lon="2.05469">
        <ele>257</ele>
        <time>2016-11-07T01:29:13Z</time>
      </trkpt>
      <trkpt lat="43.99925" lon="2.05504">
        <ele>257</ele>
        <time>2016-11-07T01:29:29Z</time>
      </trkpt>
      <trkpt lat="43.99914" lon="2.05506">
        <ele>257</ele>
        <time>2016-11-07T01:29:42Z</time>
      </trkpt>
      <trkpt lat="43.99899" lon="2.05504">
        <ele>257</ele>
        <time>2016-11-07T01:29:45Z</time>
      </trkpt>
      <trkpt lat="43.99892" lon="2.05498">
        <ele>257</ele>
        <time>2016-11-07T01:29:49Z</time>
      </trkpt>
      <trkpt lat="43.99888" lon="2.05488">
        <ele>257</ele>
        <time>2016-11-07T01:29:51Z</time>
      </trkpt>
      <trkpt lat="43.99883" lon="2.05456">
        <ele>258</ele>
        <time>2016-11-07T01:29:53Z</time>
      </trkpt>
      <trkpt lat="43.99878" lon="2.05437">
        <ele>258</ele>
        <time>2016-11-07T01:29:59Z</time>
      </trkpt>
      <trkpt lat="43.99858" lon="2.0539">
        <ele>258</ele>
      </trkpt>
      <trkpt lat="43.99853" lon="2.05353">
        <ele>258</ele>
      </trkpt>
      <trkpt lat="43.99848" lon="2.05262">
        <ele>261</ele>
      </trkpt>
      <trkpt lat="43.9984" lon="2.05247">
        <ele>261</ele>
      </trkpt>
      <trkpt lat="43.99812" lon="2.05231">
        <ele>262</ele>
        <time>2016-11-07T01:30:41Z</time>
      </trkpt>
      <trkpt lat="43.99802" lon="2.05219">
        <ele>262</ele>
        <time>2016-11-07T01:30:52Z</time>
      </trkpt>
      <trkpt lat="43.99787" lon="2.05185">
        <ele>262</ele>
        <time>2016-11-07T01:31:00Z</time>
      </trkpt>
      <trkpt lat="43.99764" lon="2.05124">
        <ele>261</ele>
        <time>2016-11-07T01:31:06Z</time>
      </trkpt>
      <trkpt lat="43.9975" lon="2.05095">
        <ele>261</ele>
        <time>2016-11-07T01:31:19Z</time>
      </trkpt>
      <trkpt lat="43.99731" lon="2.05062">
        <ele>260</ele>
        <time>2016-11-07T01:31:26Z</time>
      </trkpt>
      <trkpt lat="43.99725" lon="2.05055">
        <ele>261</ele>
      </trkpt>
      <trkpt lat="43.99725" lon="2.05028">
        <ele>260</ele>
      </trkpt>
      <trkpt lat="43.99717" lon="2.04987">
        <ele>263</ele>
      </trkpt>
      <trkpt lat="43.99719" lon="2.04965">
        <ele>265</ele>
      </trkpt>
      <trkpt lat="43.99716" lon="2.04938">
        <ele>268</ele>
      </trkpt>
      <trkpt lat="43.99691" lon="2.04868">
        <ele>278</ele>
      </trkpt>
      <trkpt lat="43.99678" lon="2.04847">
        <ele>280</ele>
      </trkpt>
      <trkpt lat="43.99669" lon="2.0484">
        <ele>280</ele>
      </trkpt>
      <trkpt lat="43.99666" lon="2.04834">
        <ele>281</ele>
      </trkpt>
      <trkpt lat="43.9967" lon="2.0481">
        <ele>281</ele>
      </trkpt>
      <trkpt lat="43.99662" lon="2.04795">
        <ele>281</ele>
      </trkpt>
      <trkpt lat="43.99651" lon="2.0479">
        <ele>282</ele>
      </trkpt>
      <trkpt lat="43.99602" lon="2.04687">
        <ele>284</ele>
      </trkpt>
      <trkpt lat="43.996" lon="2.04652">
        <ele>284</ele>
        <time>2016-11-07T01:26:00Z</time>
      </trkpt>
      <trkpt lat="43.99585" lon="2.04638">
        <ele>285</ele>
        <time>2016-11-07T01:26:05Z</time>
      </trkpt>
      <trkpt lat="43.99538" lon="2.0461">
        <ele>287</ele>
        <time>2016-11-07T01:26:10Z</time>
      </trkpt>
      <trkpt lat="43.99484" lon="2.04567">
        <ele>288</ele>
        <time>2016-11-07T01:26:24Z</time>
      </trkpt>
      <trkpt lat="43.99462" lon="2.04554">
        <ele>287</ele>
        <time>2016-11-07T01:26:41Z</time>
      </trkpt>
      <trkpt lat="43.99408" lon="2.0453">
        <ele>284</ele>
        <time>2016-11-07T01:26:57Z</time>
      </trkpt>
      <trkpt lat="43.99402" lon="2.04532">
        <ele>283</ele>
        <time>2016-11-07T01:27:02Z</time>
      </trkpt>
      <trkpt lat="43.99348" lon="2.04599">
        <ele>281</ele>
        <time>2016-11-07T01:27:04Z</time>
      </trkpt>
      <trkpt lat="43.99343" lon="2.04602">
        <ele>281</ele>
        <time>2016-11-07T01:27:23Z</time>
      </trkpt>
      <trkpt lat="43.99325" lon="2.04584">
        <ele>279</ele>
        <time>2016-11-07T01:27:24Z</time>
      </trkpt>
      <trkpt lat="43.993" lon="2.04564">
        <ele>278</ele>
        <time>2016-11-07T01:27:30Z</time>
      </trkpt>
      <trkpt lat="43.99279" lon="2.04543">
        <ele>278</ele>
        <time>2016-11-07T01:27:38Z</time>
      </trkpt>
      <trkpt lat="43.99238" lon="2.04495">
        <ele>279</ele>
        <time>2016-11-07T01:27:45Z</time>
      </trkpt>
      <trkpt lat="43.99192" lon="2.04422">
        <ele>280</ele>
        <time>2016-11-07T01:28:08Z</time>
      </trkpt>
      <trkpt lat="43.99187" lon="2.04409">
        <ele>280</ele>
        <time>2016-11-07T01:28:18Z</time>
      </trkpt>
      <trkpt lat="43.99197" lon="2.04397">
        <ele>280</ele>
        <time>2016-11-07T01:28:21Z</time>
      </trkpt>
      <trkpt lat="43.99206" lon="2.04377">
        <ele>281</ele>
        <time>2016-11-07T01:28:25Z</time>
      </trkpt>
      <trkpt lat="43.99209" lon="2.0436">
        <ele>281</ele>
        <time>2016-11-07T01:28:30Z</time>
      </trkpt>
      <trkpt lat="43.99205" lon="2.04347">
        <ele>282</ele>
        <time>2016-11-07T01:28:33Z</time>
      </trkpt>
      <trkpt lat="43.99191" lon="2.04328">
        <ele>283</ele>
        <time>2016-11-07T01:28:36Z</time>
      </trkpt>
      <trkpt lat="43.99177" lon="2.04313">
        <ele>283</ele>
        <time>2016-11-07T01:28:41Z</time>
      </trkpt>
      <trkpt lat="43.99156" lon="2.04294">
        <ele>283</ele>
        <time>2016-11-07T01:28:46Z</time>
      </trkpt>
      <trkpt lat="43.99151" lon="2.04286">
        <ele>283</ele>
        <time>2016-11-07T01:28:53Z</time>
      </trkpt>
      <trkpt lat="43.99109" lon="2.04166">
        <ele>284</ele>
      </trkpt>
      <trkpt lat="43.99062" lon="2.04011">
        <ele>288</ele>
      </trkpt>
      <trkpt lat="43.99055" lon="2.04007">
        <ele>289</ele>
      </trkpt>
      <trkpt lat="43.99024" lon="2.04047">
        <ele>290</ele>
      </trkpt>
      <trkpt lat="43.9902" lon="2.04048">
        <ele>290</ele>
      </trkpt>
      <trkpt lat="43.98967" lon="2.03939">
        <ele>293</ele>
        <time>2016-11-07T01:30:17Z</time>
      </trkpt>
      <trkpt lat="43.98931" lon="2.03863">
        <ele>295</ele>
        <time>2016-11-07T01:30:44Z</time>
      </trkpt>
      <trkpt lat="43.98928" lon="2.03853">
        <ele>295</ele>
        <time>2016-11-07T01:30:55Z</time>
      </trkpt>
      <trkpt lat="43.98934" lon="2.03816">
        <ele>296</ele>
        <time>2016-11-07T01:30:57Z</time>
      </trkpt>
      <trkpt lat="43.98943" lon="2.03764">
        <ele>297</ele>
      </trkpt>
      <trkpt lat="43.98946" lon="2.03722">
        <ele>297</ele>
        <time>2016-11-07T01:31:18Z</time>
      </trkpt>
      <trkpt lat="43.98943" lon="2.03647">
        <ele>296</ele>
      </trkpt>
      <trkpt lat="43.98946" lon="2.0363">
        <ele>295</ele>
      </trkpt>
      <trkpt lat="43.98954" lon="2.0362">
        <ele>295</ele>
      </trkpt>
      <trkpt lat="43.98996" lon="2.0358">
        <ele>297</ele>
        <time>2016-11-07T01:31:46Z</time>
      </trkpt>
      <trkpt lat="43.99012" lon="2.03561">
        <ele>298</ele>
        <time>2016-11-07T01:31:56Z</time>
      </trkpt>
      <trkpt lat="43.99054" lon="2.03475">
        <ele>301</ele>
        <time>2016-11-07T01:32:02Z</time>
      </trkpt>
      <trkpt lat="43.99099" lon="2.03381">
        <ele>302</ele>
        <time>2016-11-07T01:32:22Z</time>
      </trkpt>
      <trkpt lat="43.99112" lon="2.03345">
        <ele>303</ele>
        <time>2016-11-07T01:32:44Z</time>
      </trkpt>
      <trkpt lat="43.9912" lon="2.0333">
        <ele>303</ele>
        <time>2016-11-07T01:32:52Z</time>
      </trkpt>
      <trkpt lat="43.99048" lon="2.03249">
        <ele>297</ele>
        <time>2016-11-07T01:33:15Z</time>
      </trkpt>
      <trkpt lat="43.99038" lon="2.03231">
        <ele>295</ele>
        <time>2016-11-07T01:33:20Z</time>
      </trkpt>
      <trkpt lat="43.99012" lon="2.03148">
        <ele>294</ele>
        <time>2016-11-07T01:33:37Z</time>
      </trkpt>
      <trkpt lat="43.99004" lon="2.03135">
        <ele>294</ele>
        <time>2016-11-07T01:33:41Z</time>
      </trkpt>
      <trkpt lat="43.98924" lon="2.03078">
        <ele>293</ele>
        <time>2016-11-07T01:34:04Z</time>
      </trkpt>
      <trkpt lat="43.98929" lon="2.03014">
        <ele>293</ele>
        <time>2016-11-07T01:34:12Z</time>
      </trkpt>
      <trkpt lat="43.98932" lon="2.02984">
        <ele>293</ele>
        <time>2016-11-07T01:34:20Z</time>
      </trkpt>
      <trkpt lat="43.98946" lon="2.02915">
        <ele>292</ele>
        <time>2016-11-07T01:34:26Z</time>
      </trkpt>
      <trkpt lat="43.98956" lon="2.02861">
        <ele>289</ele>
      </trkpt>
      <trkpt lat="43.99015" lon="2.02627">
        <ele>283</ele>
        <time>2016-11-07T01:35:32Z</time>
      </trkpt>
      <trkpt lat="43.99029" lon="2.02611">
        <ele>282</ele>
        <time>2016-11-07T01:35:39Z</time>
      </trkpt>
      <trkpt lat="43.99046" lon="2.02594">
        <ele>283</ele>
        <time>2016-11-07T01:35:44Z</time>
      </trkpt>
      <trkpt lat="43.99051" lon="2.02579">
        <ele>284</ele>
        <time>2016-11-07T01:35:50Z</time>
      </trkpt>
      <trkpt lat="43.99052" lon="2.02568">
        <ele>284</ele>
        <time>2016-11-07T01:35:53Z</time>
      </trkpt>
      <trkpt lat="43.99055" lon="2.02549">
        <ele>284</ele>
        <time>2016-11-07T01:35:55Z</time>
      </trkpt>
      <trkpt lat="43.99062" lon="2.02534">
        <ele>286</ele>
        <time>2016-11-07T01:35:59Z</time>
      </trkpt>
      <trkpt lat="43.99075" lon="2.02527">
        <ele>288</ele>
      </trkpt>
      <trkpt lat="43.99211" lon="2.02581">
        <ele>298</ele>
        <time>2016-11-07T01:36:26Z</time>
      </trkpt>
      <trkpt lat="43.9925" lon="2.02595">
        <ele>299</ele>
        <time>2016-11-07T01:36:43Z</time>
      </trkpt>
      <trkpt lat="43.993" lon="2.02605">
        <ele>300</ele>
        <time>2016-11-07T01:37:01Z</time>
      </trkpt>
      <trkpt lat="43.99312" lon="2.02611">
        <ele>299</ele>
        <time>2016-11-07T01:37:07Z</time>
      </trkpt>
      <trkpt lat="43.99311" lon="2.02602">
        <ele>299</ele>
      </trkpt>
      <trkpt lat="43.99307" lon="2.02592">
        <ele>299</ele>
      </trkpt>
      <trkpt lat="43.99251" lon="2.025">
        <ele>297</ele>
        <time>2016-11-07T01:37:29Z</time>
      </trkpt>
      <trkpt lat="43.99246" lon="2.02486">
        <ele>296</ele>
        <time>2016-11-07T01:37:36Z</time>
      </trkpt>
      <trkpt lat="43.99243" lon="2.02469">
        <ele>296</ele>
        <time>2016-11-07T01:37:39Z</time>
      </trkpt>
      <trkpt lat="43.99241" lon="2.02417">
        <ele>295</ele>
        <time>2016-11-07T01:37:42Z</time>
      </trkpt>
      <trkpt lat="43.99238" lon="2.02363">
        <ele>294</ele>
        <time>2016-11-07T01:37:52Z</time>
      </trkpt>
      <trkpt lat="43.99232" lon="2.02328">
        <ele>294</ele>
        <time>2016-11-07T01:38:02Z</time>
      </trkpt>
      <trkpt lat="43.99222" lon="2.02293">
        <ele>293</ele>
        <time>2016-11-07T01:38:09Z</time>
      </trkpt>
      <trkpt lat="43.9921" lon="2.02259">
        <ele>293</ele>
        <time>2016-11-07T01:38:16Z</time>
      </trkpt>
      <trkpt lat="43.99203" lon="2.02231">
        <ele>292</ele>
        <time>2016-11-07T01:38:23Z</time>
      </trkpt>
      <trkpt lat="43.99199" lon="2.02188">
        <ele>292</ele>
        <time>2016-11-07T01:38:29Z</time>
      </trkpt>
      <trkpt lat="43.99196" lon="2.02146">
        <ele>291</ele>
        <time>2016-11-07T01:38:37Z</time>
      </trkpt>
      <trkpt lat="43.99196" lon="2.02114">
        <ele>290</ele>
      </trkpt>
      <trkpt lat="43.99203" lon="2.01953">
        <ele>288</ele>
        <time>2016-11-07T01:38:53Z</time>
      </trkpt>
      <trkpt lat="43.99204" lon="2.01899">
        <ele>287</ele>
        <time>2016-11-07T01:39:22Z</time>
      </trkpt>
      <trkpt lat="43.99202" lon="2.01854">
        <ele>286</ele>
        <time>2016-11-07T01:39:32Z</time>
      </trkpt>
      <trkpt lat="43.99196" lon="2.01827">
        <ele>286</ele>
      </trkpt>
      <trkpt lat="43.99192" lon="2.01809">
        <ele>285</ele>
      </trkpt>
      <trkpt lat="43.99126" lon="2.01608">
        <ele>278</ele>
        <time>2016-11-07T01:40:09Z</time>
      </trkpt>
      <trkpt lat="43.99103" lon="2.01541">
        <ele>276</ele>
      </trkpt>
      <trkpt lat="43.99102" lon="2.01531">
        <ele>276</ele>
      </trkpt>
      <trkpt lat="43.99134" lon="2.01483">
        <ele>276</ele>
        <time>2016-11-07T01:40:47Z</time>
      </trkpt>
      <trkpt lat="43.99156" lon="2.01442">
        <ele>277</ele>
        <time>2016-11-07T01:41:01Z</time>
      </trkpt>
      <trkpt lat="43.99178" lon="2.01395">
        <ele>276</ele>
      </trkpt>
      <trkpt lat="43.9919" lon="2.01362">
        <ele>276</ele>
        <time>2016-11-07T01:41:17Z</time>
      </trkpt>
      <trkpt lat="43.99233" lon="2.01241">
        <ele>277</ele>
        <time>2016-11-07T01:41:29Z</time>
      </trkpt>
      <trkpt lat="43.99266" lon="2.01154">
        <ele>278</ele>
        <time>2016-11-07T01:41:55Z</time>
      </trkpt>
      <trkpt lat="43.99292" lon="2.01103">
        <ele>278</ele>
        <time>2016-11-07T01:42:14Z</time>
      </trkpt>
      <trkpt lat="43.99314" lon="2.01074">
        <ele>279</ele>
        <time>2016-11-07T01:42:26Z</time>
      </trkpt>
      <trkpt lat="43.99342" lon="2.01042">
        <ele>279</ele>
        <time>2016-11-07T01:42:34Z</time>
      </trkpt>
      <trkpt lat="43.99359" lon="2.0103">
        <ele>280</ele>
        <time>2016-11-07T01:42:49Z</time>
      </trkpt>
      <trkpt lat="43.99438" lon="2.00984">
        <ele>279</ele>
        <time>2016-11-07T01:42:49Z</time>
      </trkpt>
      <trkpt lat="43.99473" lon="2.00969">
        <ele>279</ele>
        <time>2016-11-07T01:43:12Z</time>
      </trkpt>
      <trkpt lat="43.99494" lon="2.00965">
        <ele>279</ele>
        <time>2016-11-07T01:43:22Z</time>
      </trkpt>
      <trkpt lat="43.99527" lon="2.00961">
        <ele>278</ele>
        <time>2016-11-07T01:43:28Z</time>
      </trkpt>
      <trkpt lat="43.9959" lon="2.00957">
        <ele>277</ele>
        <time>2016-11-07T01:43:37Z</time>
      </trkpt>
      <trkpt lat="43.9964" lon="2.00945">
        <ele>276</ele>
        <time>2016-11-07T01:43:54Z</time>
      </trkpt>
      <trkpt lat="43.99666" lon="2.00942">
        <ele>276</ele>
        <time>2016-11-07T01:44:08Z</time>
      </trkpt>
      <trkpt lat="43.99697" lon="2.00941">
        <ele>276</ele>
        <time>2016-11-07T01:44:15Z</time>
      </trkpt>
      <trkpt lat="43.9975" lon="2.00936">
        <ele>276</ele>
        <time>2016-11-07T01:44:23Z</time>
      </trkpt>
      <trkpt lat="43.99785" lon="2.00931">
        <ele>275</ele>
        <time>2016-11-07T01:44:37Z</time>
      </trkpt>
      <trkpt lat="43.99811" lon="2.00925">
        <ele>275</ele>
        <time>2016-11-07T01:44:46Z</time>
      </trkpt>
      <trkpt lat="43.99846" lon="2.00917">
        <ele>274</ele>
        <time>2016-11-07T01:44:53Z</time>
      </trkpt>
      <trkpt lat="43.99949" lon="2.00904">
        <ele>272</ele>
      </trkpt>
      <trkpt lat="43.99953" lon="2.009">
        <ele>271</ele>
      </trkpt>
      <trkpt lat="43.99985" lon="2.00826">
        <ele>270</ele>
      </trkpt>
      <trkpt lat="43.9999" lon="2.00821">
        <ele>269</ele>
      </trkpt>
      <trkpt lat="43.99997" lon="2.00823">
        <ele>269</ele>
      </trkpt>
      <trkpt lat="44.00054" lon="2.00872">
        <ele>269</ele>
      </trkpt>
      <trkpt lat="44.00195" lon="2.00964">
        <ele>268</ele>
        <time>2016-11-07T01:46:41Z</time>
      </trkpt>
      <trkpt lat="44.00203" lon="2.00969">
        <ele>268</ele>
      </trkpt>
      <trkpt lat="44.00201" lon="2.00976">
        <ele>268</ele>
      </trkpt>
      <trkpt lat="44.00108" lon="2.01047">
        <ele>267</ele>
        <time>2016-11-07T01:47:19Z</time>
      </trkpt>
      <trkpt lat="44.00094" lon="2.0106">
        <ele>267</ele>
        <time>2016-11-07T01:47:29Z</time>
      </trkpt>
      <trkpt lat="44.00032" lon="2.01139">
        <ele>270</ele>
        <time>2016-11-07T01:47:41Z</time>
      </trkpt>
      <trkpt lat="44.0002" lon="2.01158">
        <ele>271</ele>
        <time>2016-11-07T01:47:55Z</time>
      </trkpt>
      <trkpt lat="43.99964" lon="2.01253">
        <ele>273</ele>
        <time>2016-11-07T01:48:13Z</time>
      </trkpt>
      <trkpt lat="43.99936" lon="2.0129">
        <ele>273</ele>
      </trkpt>
      <trkpt lat="43.99938" lon="2.013">
        <ele>273</ele>
      </trkpt>
      <trkpt lat="43.99954" lon="2.01316">
        <ele>272</ele>
      </trkpt>
      <trkpt lat="43.99971" lon="2.01322">
        <ele>270</ele>
      </trkpt>
      <trkpt lat="43.99993" lon="2.01322">
        <ele>269</ele>
      </trkpt>
      <trkpt lat="44.00051" lon="2.01325">
        <ele>265</ele>
        <time>2016-11-07T01:27:41Z</time>
      </trkpt>
      <trkpt lat="44.00108" lon="2.01334">
        <ele>261</ele>
        <time>2016-11-07T01:27:57Z</time>
      </trkpt>
      <trkpt lat="44.00124" lon="2.01339">
        <ele>261</ele>
      </trkpt>
      <trkpt lat="44.00129" lon="2.01351">
        <ele>261</ele>
      </trkpt>
      <trkpt lat="44.00128" lon="2.01373">
        <ele>261</ele>
      </trkpt>
      <trkpt lat="44.00117" lon="2.01405">
        <ele>261</ele>
        <time>2016-11-07T01:28:27Z</time>
      </trkpt>
      <trkpt lat="44.00103" lon="2.01427">
        <ele>261</ele>
        <time>2016-11-07T01:28:31Z</time>
      </trkpt>
      <trkpt lat="44.00091" lon="2.0144">
        <ele>261</ele>
        <time>2016-11-07T01:28:37Z</time>
      </trkpt>
      <trkpt lat="44.00087" lon="2.01452">
        <ele>260</ele>
        <time>2016-11-07T01:28:41Z</time>
      </trkpt>
      <trkpt lat="44.00087" lon="2.01462">
        <ele>260</ele>
        <time>2016-11-07T01:28:44Z</time>
      </trkpt>
      <trkpt lat="44.00089" lon="2.01474">
        <ele>260</ele>
        <time>2016-11-07T01:28:46Z</time>
      </trkpt>
      <trkpt lat="44.00096" lon="2.01498">
        <ele>260</ele>
      </trkpt>
      <trkpt lat="44.00105" lon="2.01506">
        <ele>260</ele>
      </trkpt>
      <trkpt lat="44.00126" lon="2.01549">
        <ele>261</ele>
        <time>2016-11-07T01:28:53Z</time>
      </trkpt>
      <trkpt lat="44.00128" lon="2.0159">
        <ele>263</ele>
        <time>2016-11-07T01:29:06Z</time>
      </trkpt>
      <trkpt lat="44.00131" lon="2.01632">
        <ele>265</ele>
        <time>2016-11-07T01:29:14Z</time>
      </trkpt>
      <trkpt lat="44.00136" lon="2.01652">
        <ele>266</ele>
        <time>2016-11-07T01:29:22Z</time>
      </trkpt>
      <trkpt lat="44.00163" lon="2.01699">
        <ele>272</ele>
        <time>2016-11-07T01:29:26Z</time>
      </trkpt>
      <trkpt lat="44.00165" lon="2.01708">
        <ele>272</ele>
        <time>2016-11-07T01:29:38Z</time>
      </trkpt>
      <trkpt lat="44.00164" lon="2.01727">
        <ele>273</ele>
        <time>2016-11-07T01:29:40Z</time>
      </trkpt>
      <trkpt lat="44.00149" lon="2.01789">
        <ele>276</ele>
        <time>2016-11-07T01:29:44Z</time>
      </trkpt>
      <trkpt lat="44.00153" lon="2.01799">
        <ele>276</ele>
        <time>2016-11-07T01:29:58Z</time>
      </trkpt>
      <trkpt lat="44.00192" lon="2.01832">
        <ele>281</ele>
        <time>2016-11-07T01:29:59Z</time>
      </trkpt>
      <trkpt lat="44.00247" lon="2.01885">
        <ele>284</ele>
        <time>2016-11-07T01:30:27Z</time>
      </trkpt>
      <trkpt lat="44.00231" lon="2.01924">
        <ele>284</ele>
        <time>2016-11-07T01:30:30Z</time>
      </trkpt>
      <trkpt lat="44.00223" lon="2.01957">
        <ele>284</ele>
        <time>2016-11-07T01:30:38Z</time>
      </trkpt>
      <trkpt lat="44.00213" lon="2.01995">
        <ele>284</ele>
      </trkpt>
      <trkpt lat="44.00218" lon="2.02">
        <ele>284</ele>
      </trkpt>
      <trkpt lat="44.00299" lon="2.01947">
        <ele>283</ele>
        <time>2016-11-07T01:31:06Z</time>
      </trkpt>
      <trkpt lat="44.00331" lon="2.01931">
        <ele>282</ele>
        <time>2016-11-07T01:31:21Z</time>
      </trkpt>
      <trkpt lat="44.00389" lon="2.01911">
        <ele>279</ele>
        <time>2016-11-07T01:31:41Z</time>
      </trkpt>
      <trkpt lat="44.004" lon="2.01905">
        <ele>278</ele>
        <time>2016-11-07T01:31:46Z</time>
      </trkpt>
      <trkpt lat="44.00407" lon="2.01905">
        <ele>277</ele>
      </trkpt>
      <trkpt lat="44.00406" lon="2.01922">
        <ele>276</ele>
      </trkpt>
      <trkpt lat="44.00396" lon="2.01955">
        <ele>276</ele>
        <time>2016-11-07T01:32:00Z</time>
      </trkpt>
      <trkpt lat="44.00376" lon="2.01986">
        <ele>277</ele>
        <time>2016-11-07T01:32:02Z</time>
      </trkpt>
      <trkpt lat="44.00356" lon="2.02018">
        <ele>277</ele>
        <time>2016-11-07T01:32:10Z</time>
      </trkpt>
      <trkpt lat="44.00343" lon="2.02041">
        <ele>278</ele>
        <time>2016-11-07T01:32:18Z</time>
      </trkpt>
      <trkpt lat="44.00337" lon="2.02069">
        <ele>278</ele>
        <time>2016-11-07T01:32:30Z</time>
      </trkpt>
      <trkpt lat="44.00336" lon="2.02096">
        <ele>278</ele>
        <time>2016-11-07T01:32:30Z</time>
      </trkpt>
      <trkpt lat="44.00338" lon="2.02133">
        <ele>280</ele>
        <time>2016-11-07T01:32:35Z</time>
      </trkpt>
      <trkpt lat="44.00344" lon="2.02291">
        <ele>279</ele>
      </trkpt>
      <trkpt lat="44.00343" lon="2.02302">
        <ele>276</ele>
      </trkpt>
      <trkpt lat="44.00336" lon="2.02308">
        <ele>276</ele>
      </trkpt>
      <trkpt lat="44.00327" lon="2.02388">
        <ele>264</ele>
      </trkpt>
      <trkpt lat="44.00312" lon="2.02483">
        <ele>253</ele>
      </trkpt>
      <trkpt lat="44.00297" lon="2.02497">
        <ele>251</ele>
      </trkpt>
      <trkpt lat="44.00287" lon="2.02538">
        <ele>251</ele>
      </trkpt>
      <trkpt lat="44.00268" lon="2.02616">
        <ele>256</ele>
      </trkpt>
      <trkpt lat="44.00258" lon="2.02642">
        <ele>261</ele>
      </trkpt>
      <trkpt lat="44.00249" lon="2.02659">
        <ele>266</ele>
      </trkpt>
      <trkpt lat="44.00238" lon="2.02667">
        <ele>268</ele>
      </trkpt>
      <trkpt lat="44.0022" lon="2.02672">
        <ele>269</ele>
      </trkpt>
      <trkpt lat="44.00202" lon="2.02665">
        <ele>269</ele>
      </trkpt>
      <trkpt lat="44.00187" lon="2.02665">
        <ele>270</ele>
      </trkpt>
      <trkpt lat="44.00173" lon="2.02676">
        <ele>270</ele>
      </trkpt>
      <trkpt lat="44.00147" lon="2.02706">
        <ele>273</ele>
      </trkpt>
      <trkpt lat="44.00144" lon="2.02727">
        <ele>277</ele>
      </trkpt>
      <trkpt lat="44.00122" lon="2.02793">
        <ele>285</ele>
      </trkpt>
      <trkpt lat="44.00132" lon="2.02812">
        <ele>287</ele>
      </trkpt>
      <trkpt lat="44.00119" lon="2.02824">
        <ele>288</ele>
      </trkpt>
    </trkseg>
  </trk>
</gpx>